Racine, Pennsylvania
Current Conditions -  °F | °C
As of 6:47 AM on Thursday 29 Jan 2015 (Local Time) from KBVI Reporting Station
Overcast Overcast  
Wind Chill: 12°   Ceiling: 8000
Heat Index: 23°   Visibility: 10mi
Dew Point: 12°   Wind: 10mph
Humidity: 63%   Direction: 130°SE
Pressure: 30.03"   Gusts: NA
Location:  40.7641°N, 80.3864°W
Report Text: KBVI 291147Z 13009KT 10SM SCT070 OVC080 M05/M11 A3003
Loading
Personal Weather Stations






























Interactive Weather Map New forecast layout! Learn more

10-Day Weather Forecast

Advertisements
Track Severe Weather on mobile